createdAt,value
2023-02-20T00:00:38.988Z,14.1
2023-02-20T00:01:55.295Z,13
2023-02-20T00:03:11.587Z,17.3
2023-02-20T00:04:27.894Z,24.3
2023-02-20T00:05:44.187Z,29.4
2023-02-20T00:07:00.464Z,29.7
2023-02-20T00:09:33.062Z,23.2
2023-02-20T00:10:49.359Z,25.9
2023-02-20T00:12:04.661Z,19.9
2023-02-20T00:13:20.969Z,17
2023-02-20T00:14:37.250Z,21.9
2023-02-20T00:15:53.562Z,20.2
2023-02-20T00:17:09.852Z,18.3
2023-02-20T00:18:26.149Z,25.4
2023-02-20T00:19:42.444Z,18.9
2023-02-20T00:20:58.727Z,18.7
2023-02-20T00:22:15.035Z,15.6
2023-02-20T00:24:47.612Z,21.6
2023-02-20T00:27:20.208Z,23.5
2023-02-20T00:28:36.644Z,19.3
2023-02-20T00:29:51.944Z,18.5
2023-02-20T00:31:08.248Z,16.8
2023-02-20T00:32:24.544Z,15.6
2023-02-20T00:33:40.844Z,47.4
2023-02-20T00:34:57.134Z,31.6
2023-02-20T00:36:13.426Z,21.4
2023-02-20T00:37:29.710Z,18.9
2023-02-20T00:38:46.009Z,20.3
2023-02-20T00:40:02.300Z,20.9
2023-02-20T00:41:18.606Z,21.7
2023-02-20T00:42:33.928Z,31.7
2023-02-20T00:43:49.231Z,29.9
2023-02-20T00:45:05.532Z,25.6
2023-02-20T00:47:38.122Z,20.4
2023-02-20T00:48:54.397Z,20.9
2023-02-20T00:50:10.704Z,22.7
2023-02-20T00:51:26.991Z,40.1
2023-02-20T00:52:43.298Z,34.2
2023-02-20T00:55:15.875Z,39.3
2023-02-20T00:56:32.178Z,39.1
2023-02-20T00:57:48.469Z,29.3
2023-02-20T00:59:03.776Z,32.5
2023-02-20T01:00:19.089Z,30.2
2023-02-20T01:01:35.382Z,38.2
2023-02-20T01:02:51.696Z,33
2023-02-20T01:04:07.981Z,35.1
2023-02-20T01:05:24.268Z,35.6
2023-02-20T01:06:40.560Z,37.5
2023-02-20T01:07:56.873Z,26
2023-02-20T01:09:13.161Z,36.8
2023-02-20T01:10:29.457Z,38
2023-02-20T01:11:45.739Z,24.6
2023-02-20T01:13:01.066Z,22.9
2023-02-20T01:14:16.374Z,30.8
2023-02-20T01:15:32.663Z,19.3
2023-02-20T01:16:48.970Z,32.8
2023-02-20T01:18:05.255Z,30
2023-02-20T01:19:21.558Z,33.3
2023-02-20T01:20:37.847Z,26.7
2023-02-20T01:21:54.150Z,27.3
2023-02-20T01:23:10.443Z,23.9
2023-02-20T01:25:43.018Z,19
2023-02-20T01:26:59.327Z,20.4
2023-02-20T01:28:15.609Z,18.9
2023-02-20T01:29:31.914Z,17.3
2023-02-20T01:30:47.230Z,25.5
2023-02-20T01:32:03.507Z,20.8
2023-02-20T01:33:19.808Z,26.3
2023-02-20T01:34:36.111Z,22.8
2023-02-20T01:35:52.398Z,17.8
2023-02-20T01:37:08.696Z,18.4
2023-02-20T01:38:25.000Z,18.3
2023-02-20T01:39:41.275Z,13.9
2023-02-20T01:40:57.586Z,28.1
2023-02-20T01:42:13.863Z,15
2023-02-20T01:43:30.171Z,20.6
2023-02-20T01:44:46.466Z,18
2023-02-20T01:46:02.749Z,27.6
2023-02-20T01:47:18.060Z,22
2023-02-20T01:48:34.354Z,16.8
2023-02-20T01:49:50.647Z,19.1
2023-02-20T01:51:06.951Z,16.2
2023-02-20T01:52:23.241Z,15.2
2023-02-20T01:53:39.544Z,15.7
2023-02-20T01:54:55.834Z,26.2
2023-02-20T01:56:12.130Z,15.5
2023-02-20T01:57:27.448Z,15.9
2023-02-20T01:58:43.750Z,13.3
2023-02-20T02:00:00.037Z,13.4
2023-02-20T02:01:16.321Z,20.8
2023-02-20T02:02:32.613Z,13.4
2023-02-20T02:03:48.923Z,16.2
2023-02-20T02:05:05.214Z,13.7
2023-02-20T02:06:21.497Z,14.4
2023-02-20T02:07:37.805Z,14.7
2023-02-20T02:08:54.104Z,16.7
2023-02-20T02:10:10.380Z,16.9
2023-02-20T02:11:26.693Z,14.1
2023-02-20T02:12:42.987Z,14.9
2023-02-20T02:13:58.297Z,13.9
2023-02-20T02:15:14.589Z,13
2023-02-20T02:16:30.875Z,17.5
2023-02-20T02:17:47.177Z,17.9
2023-02-20T02:19:03.468Z,16.3
2023-02-20T02:20:19.752Z,15.3
2023-02-20T02:21:36.056Z,13.2
2023-02-20T02:22:52.358Z,17.9
2023-02-20T02:24:08.651Z,17.9
2023-02-20T02:25:24.937Z,15.6
2023-02-20T02:26:41.226Z,11.5
2023-02-20T02:27:57.520Z,15.4
2023-02-20T02:29:13.822Z,16.1
2023-02-20T02:30:30.248Z,18.4
2023-02-20T02:31:46.524Z,20.1
2023-02-20T02:33:02.820Z,18.4
2023-02-20T02:34:19.120Z,17.4
2023-02-20T02:35:35.409Z,22.7
2023-02-20T02:36:51.718Z,17.5
2023-02-20T02:38:08.007Z,31.7
2023-02-20T02:39:24.310Z,17.7
2023-02-20T02:41:56.886Z,13.7
2023-02-20T02:43:13.175Z,20.9
2023-02-20T02:44:29.479Z,21
2023-02-20T02:45:45.768Z,19.9
2023-02-20T02:47:01.083Z,23.7
2023-02-20T02:49:33.677Z,18.3
2023-02-20T02:50:49.962Z,18.9
2023-02-20T02:52:06.263Z,22.9
2023-02-20T02:53:22.562Z,18.5
2023-02-20T02:54:38.848Z,19
2023-02-20T02:55:55.148Z,25.1
2023-02-20T02:57:11.446Z,17.7
2023-02-20T02:58:27.731Z,20
2023-02-20T02:59:44.030Z,21.1
2023-02-20T03:01:00.325Z,17.4
2023-02-20T03:02:16.618Z,21.4
2023-02-20T03:03:31.929Z,19.1
2023-02-20T03:04:48.223Z,28.5
2023-02-20T03:06:04.518Z,33.7
2023-02-20T03:07:20.810Z,24.6
2023-02-20T03:08:37.097Z,18.4
2023-02-20T03:09:53.400Z,32.6
2023-02-20T03:11:09.698Z,19.4
2023-02-20T03:12:25.990Z,20
2023-02-20T03:13:42.282Z,18.9
2023-02-20T03:14:58.576Z,25.5
2023-02-20T03:16:14.886Z,16.1
2023-02-20T03:17:31.179Z,17.7
2023-02-20T03:18:47.464Z,16.9
2023-02-20T03:20:02.775Z,15.3
2023-02-20T03:21:19.078Z,19.8
2023-02-20T03:22:35.367Z,19.9
2023-02-20T03:23:51.663Z,14.5
2023-02-20T03:25:07.960Z,14.2
2023-02-20T03:26:24.246Z,16.8
2023-02-20T03:27:40.544Z,13.4
2023-02-20T03:28:56.831Z,30.4
2023-02-20T03:30:13.121Z,17.1
2023-02-20T03:31:29.432Z,19.7
2023-02-20T03:32:45.712Z,22.1
2023-02-20T03:34:02.007Z,32.7
2023-02-20T03:35:18.318Z,32.7
2023-02-20T03:36:33.618Z,16.5
2023-02-20T03:37:49.912Z,22.2
2023-02-20T03:39:06.205Z,22.2
2023-02-20T03:40:22.507Z,12.4
2023-02-20T03:41:38.792Z,19.6
2023-02-20T03:42:55.094Z,22.7
2023-02-20T03:44:11.390Z,21.9
2023-02-20T03:45:27.680Z,22.8
2023-02-20T03:46:43.988Z,32.2
2023-02-20T03:48:00.266Z,21.4
2023-02-20T03:49:16.569Z,23.6
2023-02-20T03:50:32.862Z,23.9
2023-02-20T03:51:49.148Z,18.8
2023-02-20T03:53:04.468Z,18.4
2023-02-20T03:54:20.753Z,17.3
2023-02-20T03:55:37.050Z,20.2
2023-02-20T03:56:53.353Z,19.1
2023-02-20T03:58:09.655Z,19.5
2023-02-20T03:59:25.933Z,15.2
2023-02-20T04:00:42.232Z,15.4
2023-02-20T04:01:58.532Z,19.8
2023-02-20T04:03:14.832Z,20.8
2023-02-20T04:05:47.402Z,17.8
2023-02-20T04:07:03.712Z,22.2
2023-02-20T04:08:20.001Z,15.2
2023-02-20T04:09:35.309Z,19.1
2023-02-20T04:10:51.615Z,17.8
2023-02-20T04:12:07.910Z,15.7
2023-02-20T04:13:24.193Z,18.6
2023-02-20T04:14:40.481Z,15.5
2023-02-20T04:15:56.776Z,19.4
2023-02-20T04:17:13.082Z,22.9
2023-02-20T04:18:29.380Z,24.6
2023-02-20T04:19:45.667Z,18.9
2023-02-20T04:21:01.963Z,18
2023-02-20T04:22:18.263Z,20.2
2023-02-20T04:23:34.556Z,18.4
2023-02-20T04:24:50.841Z,17.3
2023-02-20T04:26:06.159Z,18.2
2023-02-20T04:28:38.751Z,22.2
2023-02-20T04:29:55.048Z,19.8
2023-02-20T04:31:11.335Z,16.4
2023-02-20T04:32:27.632Z,14.5
2023-02-20T04:33:43.927Z,16.3
2023-02-20T04:35:00.221Z,23.2
2023-02-20T04:36:16.510Z,21
2023-02-20T04:37:32.808Z,19.9
2023-02-20T04:38:49.098Z,16.2
2023-02-20T04:40:05.391Z,18
2023-02-20T04:41:21.693Z,22.5
2023-02-20T04:42:37.005Z,21.7
2023-02-20T04:43:53.304Z,21.1
2023-02-20T04:45:09.585Z,16.9
2023-02-20T04:46:25.891Z,23.2
2023-02-20T04:47:42.187Z,19.2
2023-02-20T04:48:58.486Z,16.9
2023-02-20T04:50:14.776Z,15.9
2023-02-20T04:51:31.071Z,15.9
2023-02-20T04:52:47.360Z,17.5
2023-02-20T04:54:03.657Z,22.1
2023-02-20T04:55:19.943Z,13.7
2023-02-20T04:56:36.242Z,15.4
2023-02-20T04:57:52.539Z,14.9
2023-02-20T04:59:07.849Z,13.7
2023-02-20T05:00:24.141Z,16
2023-02-20T05:01:40.433Z,17.9
2023-02-20T05:02:56.732Z,14.3
2023-02-20T05:04:13.026Z,12.9
2023-02-20T05:05:29.322Z,14.8
2023-02-20T05:06:45.620Z,15.7
2023-02-20T05:08:01.914Z,15.9
2023-02-20T05:09:18.191Z,17.1
2023-02-20T05:10:34.495Z,15.1
2023-02-20T05:11:50.782Z,13.2
2023-02-20T05:14:23.373Z,16.9
2023-02-20T05:15:38.681Z,16.3
2023-02-20T05:16:54.993Z,13
2023-02-20T05:18:11.288Z,18.3
2023-02-20T05:19:27.582Z,15.3
2023-02-20T05:20:43.872Z,14.7
2023-02-20T05:22:00.157Z,13.7
2023-02-20T05:23:16.466Z,14.3
2023-02-20T05:24:32.757Z,16.7
2023-02-20T05:25:49.044Z,17.1
2023-02-20T05:27:05.332Z,18.1
2023-02-20T05:28:21.627Z,16.6
2023-02-20T05:29:37.932Z,17.6
2023-02-20T05:30:54.219Z,22.3
2023-02-20T05:32:09.546Z,21.2
2023-02-20T05:33:25.823Z,14.5
2023-02-20T05:34:42.119Z,16.5
2023-02-20T05:35:58.424Z,16.4
2023-02-20T05:37:14.715Z,15.2
2023-02-20T05:38:31.009Z,18
2023-02-20T05:39:47.314Z,14.8
2023-02-20T05:41:03.605Z,16.5
2023-02-20T05:42:19.000Z,17.3
2023-02-20T05:43:36.137Z,16.8
2023-02-20T05:44:52.418Z,16.1
2023-02-20T05:46:08.676Z,15.1
2023-02-20T05:47:24.931Z,17.5
2023-02-20T05:48:41.283Z,14.3
2023-02-20T05:49:57.528Z,15.8
2023-02-20T05:51:13.756Z,14.5
2023-02-20T05:52:30.012Z,15.7
2023-02-20T05:53:46.238Z,15.4
2023-02-20T05:55:02.490Z,15
2023-02-20T05:56:18.736Z,15.7
2023-02-20T05:57:34.968Z,15.7
2023-02-20T05:58:51.224Z,13.4
2023-02-20T06:00:07.447Z,15.9
2023-02-20T06:01:23.710Z,14.4
2023-02-20T06:02:39.949Z,15.3
2023-02-20T06:03:56.171Z,17
2023-02-20T06:05:11.436Z,16.6
2023-02-20T06:07:43.907Z,14.2
2023-02-20T06:09:00.157Z,17.2
2023-02-20T06:10:16.397Z,15.7
2023-02-20T06:11:32.641Z,17.8
2023-02-20T06:12:47.904Z,14.7
2023-02-20T06:14:04.138Z,13.5
2023-02-20T06:15:20.385Z,13.7
2023-02-20T06:16:36.612Z,13.9
2023-02-20T06:19:09.101Z,11.9
2023-02-20T06:20:25.346Z,11.1
2023-02-20T06:21:41.588Z,14.1
2023-02-20T06:22:57.821Z,12.5
2023-02-20T06:24:14.062Z,13.3
2023-02-20T06:25:30.296Z,15.4
2023-02-20T06:26:46.550Z,15.7
2023-02-20T06:28:02.777Z,15.3
2023-02-20T06:29:19.148Z,14.3
2023-02-20T06:30:35.385Z,11.7
2023-02-20T06:31:51.625Z,15.3
2023-02-20T06:33:07.878Z,12.1
2023-02-20T06:34:24.099Z,11.6
2023-02-20T06:35:40.346Z,11.7
2023-02-20T06:38:12.831Z,16.5
2023-02-20T06:39:29.082Z,13.1
2023-02-20T06:40:45.312Z,12.7
2023-02-20T06:42:01.552Z,10.3
2023-02-20T06:43:17.786Z,12.7
2023-02-20T06:45:50.274Z,11.6
2023-02-20T06:47:05.527Z,13.1
2023-02-20T06:48:21.771Z,12.1
2023-02-20T06:49:38.008Z,10.5
2023-02-20T06:50:54.255Z,10.8
2023-02-20T06:52:10.492Z,12.1
2023-02-20T06:53:26.728Z,10.5
2023-02-20T06:54:42.967Z,10.9
2023-02-20T06:55:59.220Z,11.8
2023-02-20T06:57:15.462Z,11
2023-02-20T06:58:31.701Z,11.1
2023-02-20T06:59:47.943Z,11.9
2023-02-20T07:01:04.168Z,11.4
2023-02-20T07:02:20.408Z,10.4
2023-02-20T07:03:35.679Z,11.2
2023-02-20T07:04:51.913Z,11.6
2023-02-20T07:06:08.157Z,14.5
2023-02-20T07:07:24.401Z,12.3
2023-02-20T07:08:40.643Z,14.2
2023-02-20T07:09:56.871Z,11.6
2023-02-20T07:11:13.107Z,13.4
2023-02-20T07:12:29.347Z,12.3
2023-02-20T07:13:45.590Z,12.4
2023-02-20T07:15:01.843Z,13.7
2023-02-20T07:16:18.083Z,10.8
2023-02-20T07:17:34.311Z,10.8
2023-02-20T07:18:50.551Z,10.5
2023-02-20T07:20:05.813Z,10.9
2023-02-20T07:21:22.052Z,11
2023-02-20T07:22:38.305Z,10.7
2023-02-20T07:23:54.541Z,10.2
2023-02-20T07:25:10.788Z,10.8
2023-02-20T07:27:43.268Z,9.2
2023-02-20T07:28:59.508Z,10.2
2023-02-20T07:30:15.733Z,10.4
2023-02-20T07:31:31.975Z,10.5
2023-02-20T07:32:48.216Z,10.8
2023-02-20T07:34:04.453Z,10.7
2023-02-20T07:35:20.695Z,10.8
2023-02-20T07:36:35.965Z,9.9
2023-02-20T07:37:52.208Z,11.5
2023-02-20T07:39:08.436Z,12.4
2023-02-20T07:40:24.680Z,11.9
2023-02-20T07:41:40.930Z,12.6
2023-02-20T07:42:57.152Z,11.9
2023-02-20T07:44:13.397Z,11.5
2023-02-20T07:46:45.886Z,11.9
2023-02-20T07:48:02.132Z,11.8
2023-02-20T07:49:18.372Z,11.5
2023-02-20T07:50:34.606Z,11.8
2023-02-20T07:51:50.849Z,11.4
2023-02-20T07:53:06.111Z,12.3
2023-02-20T07:54:22.344Z,11.1
2023-02-20T07:55:38.581Z,12.2
2023-02-20T07:56:54.832Z,10.7
2023-02-20T07:58:11.072Z,10.6
2023-02-20T07:59:27.300Z,10.6
2023-02-20T08:00:43.540Z,10.9
2023-02-20T08:01:59.785Z,11.7
2023-02-20T08:03:16.016Z,11.6
2023-02-20T08:04:32.275Z,11.6
2023-02-20T08:05:48.498Z,11.3
2023-02-20T08:07:04.740Z,10.8
2023-02-20T08:09:37.235Z,10.4
2023-02-20T08:10:52.483Z,9.7
2023-02-20T08:12:08.729Z,10.2
2023-02-20T08:13:24.961Z,11.1
2023-02-20T08:14:41.214Z,9.5
2023-02-20T08:15:57.440Z,10.1
2023-02-20T08:17:13.685Z,10.3
2023-02-20T08:18:29.933Z,10.3
2023-02-20T08:19:46.162Z,10
2023-02-20T08:21:02.399Z,9.3
2023-02-20T08:22:18.655Z,9.7
2023-02-20T08:26:07.369Z,10.3
2023-02-20T08:27:22.624Z,9.3
2023-02-20T08:28:37.883Z,9.5
2023-02-20T08:29:54.139Z,10.2
2023-02-20T08:31:10.377Z,9.9
2023-02-20T08:32:26.602Z,9.1
2023-02-20T08:33:42.839Z,9.8
2023-02-20T08:34:59.080Z,9.6
2023-02-20T08:36:15.320Z,9.7
2023-02-20T08:37:31.561Z,10
2023-02-20T08:38:47.802Z,9.8
2023-02-20T08:40:04.045Z,9.8
2023-02-20T08:41:19.306Z,10.2
2023-02-20T08:42:34.569Z,10
2023-02-20T08:43:50.800Z,9.9
2023-02-20T08:45:07.047Z,8.8
2023-02-20T08:47:39.534Z,10.5
2023-02-20T08:48:55.775Z,9.1
2023-02-20T08:50:12.005Z,9.3
2023-02-20T08:51:28.245Z,8.6
2023-02-20T08:52:44.498Z,8.7
2023-02-20T08:54:00.721Z,8.8
2023-02-20T08:55:16.967Z,8.6
2023-02-20T08:56:33.215Z,9.2
2023-02-20T08:57:49.447Z,9
2023-02-20T08:59:04.705Z,8.5
2023-02-20T09:00:20.947Z,7.8
2023-02-20T09:02:53.420Z,8.3
2023-02-20T09:04:08.685Z,8.4
2023-02-20T09:05:23.954Z,8
2023-02-20T09:07:56.431Z,7.4
2023-02-20T09:09:12.663Z,7.7
2023-02-20T09:10:28.909Z,7.5
2023-02-20T09:11:45.152Z,8.1
2023-02-20T09:13:01.383Z,8
2023-02-20T09:14:17.614Z,7.9
2023-02-20T09:15:33.859Z,7.8
2023-02-20T09:18:06.338Z,7.8
2023-02-20T09:19:22.586Z,7.4
2023-02-20T09:20:37.845Z,7.6
2023-02-20T09:21:53.103Z,7.2
2023-02-20T09:23:09.342Z,8.2
2023-02-20T09:24:25.586Z,6.9
2023-02-20T09:25:41.814Z,7.9
2023-02-20T09:26:58.059Z,8
2023-02-20T09:28:14.308Z,8
2023-02-20T09:29:30.537Z,7.2
2023-02-20T09:30:46.790Z,8
2023-02-20T09:32:03.026Z,7.6
2023-02-20T09:33:19.253Z,7.4
2023-02-20T09:34:34.517Z,6.8
2023-02-20T09:35:49.773Z,7.8
2023-02-20T09:37:06.024Z,7.8
2023-02-20T09:38:22.253Z,7.2
2023-02-20T09:40:54.745Z,7.9
2023-02-20T09:42:10.977Z,8
2023-02-20T09:43:27.221Z,7.2
2023-02-20T09:44:43.461Z,8
2023-02-20T09:45:59.709Z,6.2
2023-02-20T09:48:32.187Z,7.1
2023-02-20T09:49:48.426Z,6.7
2023-02-20T09:51:03.691Z,7.1
2023-02-20T09:52:18.940Z,7.4
2023-02-20T09:53:35.178Z,7.4
2023-02-20T09:56:07.652Z,6.2
2023-02-20T09:57:23.891Z,6.2
2023-02-20T09:58:40.140Z,6.2
2023-02-20T09:59:56.382Z,7
2023-02-20T10:01:12.620Z,6.5
2023-02-20T10:02:28.866Z,5.9
2023-02-20T10:03:45.091Z,6.8
2023-02-20T10:05:01.325Z,6.2
2023-02-20T10:06:17.586Z,6.4
2023-02-20T10:07:33.809Z,6.8
2023-02-20T10:08:49.072Z,7
2023-02-20T10:10:05.311Z,6.5
2023-02-20T10:11:21.550Z,7.2
2023-02-20T10:12:37.802Z,6.6
2023-02-20T10:13:54.029Z,6.9
2023-02-20T10:15:10.273Z,6.5
2023-02-20T10:16:26.503Z,5.9
2023-02-20T10:18:58.994Z,7
2023-02-20T10:20:15.238Z,7
2023-02-20T10:21:31.469Z,6.5
2023-02-20T10:22:46.739Z,7.5
2023-02-20T10:24:01.996Z,6
2023-02-20T10:25:18.224Z,5.8
2023-02-20T10:26:34.461Z,5.9
2023-02-20T10:27:50.704Z,6.5
2023-02-20T10:29:05.969Z,5.2
2023-02-20T10:30:22.220Z,6.2
2023-02-20T10:31:38.446Z,5.6
2023-02-20T10:32:54.684Z,5.8
2023-02-20T10:34:10.924Z,5.9
2023-02-20T10:35:27.168Z,6.4
2023-02-20T10:36:42.441Z,5.6
2023-02-20T10:37:58.669Z,6.3
2023-02-20T10:39:13.936Z,6.8
2023-02-20T10:40:30.162Z,6.8
2023-02-20T10:41:46.408Z,5.8
2023-02-20T10:43:02.647Z,7.5
2023-02-20T10:44:18.893Z,6.1
2023-02-20T10:45:35.120Z,4.9
2023-02-20T10:46:51.365Z,5.7
2023-02-20T10:49:23.841Z,5.2
2023-02-20T10:50:40.096Z,5.5
2023-02-20T10:51:56.338Z,5.3
2023-02-20T10:53:12.570Z,5.7
2023-02-20T10:54:28.811Z,5.3
2023-02-20T10:55:44.072Z,5
2023-02-20T10:57:00.297Z,5.3
2023-02-20T10:58:16.537Z,4.5
2023-02-20T10:59:32.790Z,5.5
2023-02-20T11:00:49.032Z,4.6
2023-02-20T11:02:05.265Z,4.8
2023-02-20T11:03:21.497Z,5.7
2023-02-20T11:04:37.754Z,6.2
2023-02-20T11:05:53.994Z,6.7
2023-02-20T11:07:10.220Z,5.9
2023-02-20T11:08:26.468Z,5.8
2023-02-20T11:09:42.705Z,5.7
2023-02-20T11:10:58.944Z,5.3
2023-02-20T11:12:14.191Z,4.9
2023-02-20T11:13:30.431Z,5.5
2023-02-20T11:14:46.672Z,5.1
2023-02-20T11:16:02.930Z,5.4
2023-02-20T11:17:19.167Z,4.9
2023-02-20T11:18:35.403Z,4.8
2023-02-20T11:19:51.633Z,5.2
2023-02-20T11:21:07.880Z,4.5
2023-02-20T11:22:24.122Z,6.7
2023-02-20T11:23:40.367Z,5.1
2023-02-20T11:24:56.594Z,5.1
2023-02-20T11:26:12.846Z,5.4
2023-02-20T11:27:29.078Z,4.4
2023-02-20T11:28:44.343Z,4.3
2023-02-20T11:30:00.576Z,5.6
2023-02-20T11:31:16.823Z,6.1
2023-02-20T11:32:33.053Z,5.9
2023-02-20T11:35:05.538Z,5.2
2023-02-20T11:36:21.776Z,5.7
2023-02-20T11:37:38.011Z,5
2023-02-20T11:38:54.266Z,5
2023-02-20T11:40:10.501Z,5.2
2023-02-20T11:42:42.972Z,4.8
2023-02-20T11:43:59.215Z,4.9
2023-02-20T11:45:14.470Z,5.5
2023-02-20T11:46:30.706Z,5.6
2023-02-20T11:47:46.952Z,5.3
2023-02-20T11:49:03.182Z,5.3
2023-02-20T11:50:19.437Z,4.1
2023-02-20T11:51:35.681Z,5.1
2023-02-20T11:52:51.912Z,4.4
2023-02-20T11:54:08.160Z,4.8
2023-02-20T11:55:24.393Z,5.1
2023-02-20T11:56:40.626Z,4.5
2023-02-20T11:57:56.873Z,4.6
2023-02-20T11:59:13.110Z,4.7
2023-02-20T12:00:29.353Z,4.7
2023-02-20T12:01:45.590Z,4.7
2023-02-20T12:03:00.855Z,4.7
2023-02-20T12:05:33.331Z,5.2
2023-02-20T12:06:49.559Z,4.7
2023-02-20T12:08:05.812Z,5.1
2023-02-20T12:09:22.045Z,5.8
2023-02-20T12:10:38.282Z,5.6
2023-02-20T12:13:10.774Z,4.7
2023-02-20T12:14:26.999Z,5
2023-02-20T12:15:43.238Z,5.1
2023-02-20T12:16:59.492Z,5
2023-02-20T12:18:15.715Z,5.6
2023-02-20T12:19:30.988Z,6.8
2023-02-20T12:20:47.214Z,5
2023-02-20T12:22:03.454Z,4.6
2023-02-20T12:23:19.697Z,4.4
2023-02-20T12:25:52.176Z,4.5
2023-02-20T12:27:08.423Z,4.3
2023-02-20T12:28:23.672Z,5.3
2023-02-20T12:29:40.055Z,4.4
2023-02-20T12:30:56.275Z,5.2
2023-02-20T12:32:12.518Z,5
2023-02-20T12:33:28.764Z,4.5
2023-02-20T12:34:44.996Z,5
2023-02-20T12:36:01.238Z,5.4
2023-02-20T12:37:17.489Z,6
2023-02-20T12:38:33.727Z,4.7
2023-02-20T12:39:49.971Z,4.9
2023-02-20T12:41:06.212Z,5.4
2023-02-20T12:42:21.474Z,4.9
2023-02-20T12:43:36.726Z,4.7
2023-02-20T12:44:52.971Z,4.8
2023-02-20T12:46:09.189Z,5
2023-02-20T12:47:25.437Z,5.8
2023-02-20T12:48:41.671Z,5
2023-02-20T12:49:57.909Z,5.2
2023-02-20T12:51:14.159Z,4.9
2023-02-20T12:53:46.641Z,4.8
2023-02-20T12:55:02.881Z,5.1
2023-02-20T12:56:19.112Z,4.8
2023-02-20T12:57:35.365Z,5.1
2023-02-20T12:58:51.593Z,4.8
2023-02-20T13:00:06.852Z,4.6
2023-02-20T13:01:23.087Z,5
2023-02-20T13:02:39.329Z,5.5
2023-02-20T13:03:55.579Z,4.7
2023-02-20T13:05:11.825Z,4.9
2023-02-20T13:06:28.047Z,5.7
2023-02-20T13:09:00.526Z,5.2
2023-02-20T13:10:16.766Z,5.2
2023-02-20T13:11:33.015Z,6.6
2023-02-20T13:14:05.487Z,5.5
2023-02-20T13:15:20.757Z,7.3
2023-02-20T13:16:36.020Z,7
2023-02-20T13:17:52.251Z,6.1
2023-02-20T13:19:08.488Z,6.9
2023-02-20T13:21:40.972Z,5.3
2023-02-20T13:22:57.209Z,6
2023-02-20T13:24:13.442Z,5.6
2023-02-20T13:25:29.681Z,5.3
2023-02-20T13:26:45.922Z,5.6
2023-02-20T13:28:02.177Z,5.4
2023-02-20T13:29:18.408Z,6.5
2023-02-20T13:30:34.649Z,6.2
2023-02-20T13:31:50.893Z,4.8
2023-02-20T13:33:07.124Z,5
2023-02-20T13:34:22.382Z,4.8
2023-02-20T13:35:38.631Z,5.2
2023-02-20T13:36:54.871Z,6.6
2023-02-20T13:38:11.098Z,5.6
2023-02-20T13:39:27.350Z,5.5
2023-02-20T13:40:43.588Z,6.6
2023-02-20T13:41:59.819Z,5.6
2023-02-20T13:44:31.327Z,5.4
2023-02-20T13:45:47.573Z,4.8
2023-02-20T13:47:02.817Z,5.7
2023-02-20T13:48:18.080Z,4.9
2023-02-20T13:49:33.347Z,5.2
2023-02-20T13:50:49.573Z,6.3
2023-02-20T13:52:05.812Z,5.3
2023-02-20T13:53:22.057Z,4.3
2023-02-20T13:54:38.302Z,4.6
2023-02-20T13:55:54.538Z,5
2023-02-20T13:57:10.779Z,5.2
2023-02-20T13:59:43.255Z,5.2
2023-02-20T14:00:59.488Z,5
2023-02-20T14:02:15.727Z,4.8
2023-02-20T14:03:31.986Z,4.4
2023-02-20T14:04:48.219Z,5.4
2023-02-20T14:06:03.465Z,5.8
2023-02-20T14:07:19.712Z,5.1
2023-02-20T14:09:52.189Z,5.6
2023-02-20T14:11:07.460Z,5.6
2023-02-20T14:12:22.717Z,5.1
2023-02-20T14:14:55.183Z,5.5
2023-02-20T14:16:11.427Z,5.2
2023-02-20T14:17:27.677Z,6.5
2023-02-20T14:18:43.901Z,4.7
2023-02-20T14:20:00.156Z,5.2
2023-02-20T14:21:16.387Z,5.1
2023-02-20T14:22:32.629Z,6.2
2023-02-20T14:23:48.867Z,4.9
2023-02-20T14:25:05.115Z,4.4
2023-02-20T14:26:21.342Z,5.1
2023-02-20T14:27:37.588Z,6.1
2023-02-20T14:30:09.082Z,5.1
2023-02-20T14:31:25.325Z,6.4
2023-02-20T14:32:40.581Z,5.7
2023-02-20T14:33:56.940Z,5.2
2023-02-20T14:35:13.186Z,5.9
2023-02-20T14:36:29.430Z,5.2
2023-02-20T14:37:45.666Z,6
2023-02-20T14:39:01.913Z,5.8
2023-02-20T14:40:18.156Z,5.2
2023-02-20T14:41:34.382Z,5.9
2023-02-20T14:42:50.632Z,6.2
2023-02-20T14:44:05.884Z,6
2023-02-20T14:45:22.119Z,5.9
2023-02-20T14:46:37.393Z,5.4
2023-02-20T14:47:52.653Z,6.4
2023-02-20T14:49:08.874Z,5.7
2023-02-20T14:50:25.134Z,5.5
2023-02-20T14:51:41.368Z,5.9
2023-02-20T14:52:57.610Z,6.1
2023-02-20T14:54:13.845Z,5.6
2023-02-20T14:55:30.077Z,6.3
2023-02-20T14:56:46.327Z,6.7
2023-02-20T14:58:02.557Z,6.5
2023-02-20T15:00:35.038Z,6.3
2023-02-20T15:01:51.278Z,5.7
2023-02-20T15:03:07.517Z,6
2023-02-20T15:04:22.782Z,7.1
2023-02-20T15:05:39.018Z,5.4
2023-02-20T15:06:55.255Z,5.6
2023-02-20T15:08:11.509Z,6.1
2023-02-20T15:09:27.751Z,5.5
2023-02-20T15:10:43.974Z,6.7
2023-02-20T15:12:00.225Z,5.6
2023-02-20T15:13:16.452Z,6.8
2023-02-20T15:14:32.699Z,7.6
2023-02-20T15:15:47.967Z,8
2023-02-20T15:17:03.208Z,7.5
2023-02-20T15:18:19.466Z,7.5
2023-02-20T15:19:35.689Z,7.6
2023-02-20T15:20:51.940Z,8.4
2023-02-20T15:22:08.177Z,6.8
2023-02-20T15:23:24.418Z,8.1
2023-02-20T15:24:40.661Z,6.1
2023-02-20T15:25:56.890Z,6.8
2023-02-20T15:27:13.137Z,6.7
2023-02-20T15:28:29.381Z,8
2023-02-20T15:29:45.623Z,7.8
2023-02-20T15:31:01.848Z,7.6
2023-02-20T15:32:18.100Z,6.7
2023-02-20T15:33:33.347Z,8
2023-02-20T15:34:49.590Z,7
2023-02-20T15:36:05.838Z,5.9
2023-02-20T15:37:22.075Z,6.8
2023-02-20T15:38:38.313Z,5.8
2023-02-20T15:39:54.561Z,6.3
2023-02-20T15:41:10.798Z,6.5
2023-02-20T15:42:27.028Z,6.2
2023-02-20T15:43:43.279Z,6.8
2023-02-20T15:46:15.744Z,6
2023-02-20T15:47:31.998Z,5.8
2023-02-20T15:48:48.235Z,5.6
2023-02-20T15:50:04.476Z,6.4
2023-02-20T15:51:19.722Z,6.6
2023-02-20T15:53:52.212Z,6.4
2023-02-20T15:55:08.447Z,6.9
2023-02-20T15:56:24.689Z,6.8
2023-02-20T15:57:40.931Z,5.4
2023-02-20T15:58:57.170Z,6.3
2023-02-20T16:00:13.414Z,5.9
2023-02-20T16:01:29.647Z,5.6
2023-02-20T16:02:45.879Z,6
2023-02-20T16:04:02.131Z,6.6
2023-02-20T16:05:18.370Z,6.5
2023-02-20T16:06:34.604Z,8.4
2023-02-20T16:09:06.096Z,9.9
2023-02-20T16:10:21.369Z,7.4
2023-02-20T16:11:37.723Z,6.8
2023-02-20T16:12:53.972Z,7.3
2023-02-20T16:14:10.198Z,7.1
2023-02-20T16:15:26.445Z,7
2023-02-20T16:16:42.687Z,6.6
2023-02-20T16:17:58.928Z,5.9
2023-02-20T16:19:15.156Z,6.7
2023-02-20T16:20:31.397Z,5.2
2023-02-20T16:21:47.641Z,6.2
2023-02-20T16:23:03.889Z,5.2
2023-02-20T16:24:19.156Z,6.4
2023-02-20T16:25:34.412Z,6.8
2023-02-20T16:26:50.641Z,6.3
2023-02-20T16:28:06.884Z,6.2
2023-02-20T16:29:23.124Z,5.7
2023-02-20T16:30:39.370Z,5.1
2023-02-20T16:31:55.614Z,6.4
2023-02-20T16:33:11.839Z,6.9
2023-02-20T16:34:28.087Z,5.6
2023-02-20T16:35:44.322Z,6.6
2023-02-20T16:37:00.573Z,6
2023-02-20T16:38:16.803Z,7.5
2023-02-20T16:39:33.044Z,6.6
2023-02-20T16:40:49.290Z,6.5
2023-02-20T16:42:04.547Z,5.5
2023-02-20T16:43:20.770Z,6.1
2023-02-20T16:44:37.019Z,6.5
2023-02-20T16:45:53.253Z,11.6
2023-02-20T16:47:09.499Z,10
2023-02-20T16:48:25.745Z,10.2
2023-02-20T16:49:41.988Z,13.2
2023-02-20T16:50:58.217Z,12.8
2023-02-20T16:52:14.468Z,11.4
2023-02-20T16:53:30.707Z,12.5
2023-02-20T16:54:46.934Z,12.5
2023-02-20T16:56:03.177Z,12.6
2023-02-20T16:57:19.417Z,13.6
2023-02-20T16:58:35.668Z,12.6
2023-02-20T16:59:50.923Z,14.4
2023-02-20T17:01:07.150Z,13.9
2023-02-20T17:02:23.400Z,13.6
2023-02-20T17:03:39.634Z,14.4
2023-02-20T17:04:55.876Z,13.4
2023-02-20T17:06:12.166Z,15.2
2023-02-20T17:07:28.466Z,15.4
2023-02-20T17:08:44.758Z,14.3
2023-02-20T17:10:01.061Z,12.9
2023-02-20T17:11:17.358Z,14.5
2023-02-20T17:12:33.646Z,12.6
2023-02-20T17:13:49.943Z,14.3
2023-02-20T17:15:06.000Z,15.2
2023-02-20T17:16:21.536Z,14.4
2023-02-20T17:17:37.823Z,14.9
2023-02-20T17:18:54.128Z,13.7
2023-02-20T17:20:10.425Z,14.5
2023-02-20T17:21:26.706Z,14.2
2023-02-20T17:22:43.017Z,16.3
2023-02-20T17:23:59.303Z,13.5
2023-02-20T17:25:15.587Z,14
2023-02-20T17:26:31.886Z,13.8
2023-02-20T17:27:48.192Z,13
2023-02-20T17:29:04.476Z,13.1
2023-02-20T17:30:20.783Z,14.2
2023-02-20T17:31:37.071Z,13
2023-02-20T17:32:52.374Z,14.4
2023-02-20T17:34:08.665Z,12.7
2023-02-20T17:35:24.974Z,14.9
2023-02-20T17:36:41.266Z,14.1
2023-02-20T17:37:57.560Z,13.1
2023-02-20T17:39:13.846Z,12.9
2023-02-20T17:40:30.135Z,13.4
2023-02-20T17:41:46.445Z,12.5
2023-02-20T17:43:02.737Z,12.5
2023-02-20T17:44:19.017Z,12.6
2023-02-20T17:45:35.324Z,12.5
2023-02-20T17:46:51.614Z,13
2023-02-20T17:48:07.914Z,12
2023-02-20T17:49:23.214Z,13.3
2023-02-20T17:50:39.511Z,12.7
2023-02-20T17:51:55.796Z,10
2023-02-20T17:53:12.096Z,8
2023-02-20T17:54:28.386Z,7
2023-02-20T17:55:44.690Z,7.5
2023-02-20T17:57:00.973Z,6.7
2023-02-20T17:58:17.284Z,6.8
2023-02-20T17:59:33.564Z,6.2
2023-02-20T18:00:49.870Z,5.2
2023-02-20T18:02:06.134Z,6.6
2023-02-20T18:03:22.437Z,5.8
2023-02-20T18:04:38.740Z,6.4
2023-02-20T18:05:54.037Z,5
2023-02-20T18:07:10.331Z,6.7
2023-02-20T18:08:26.636Z,5.4
2023-02-20T18:09:42.930Z,6.1
2023-02-20T18:10:59.206Z,5.9
2023-02-20T18:12:15.513Z,6.1
2023-02-20T18:13:31.797Z,6.4
2023-02-20T18:14:48.099Z,5.8
2023-02-20T18:16:04.392Z,6.9